KSLG/SLG METAR and TAF weather

Enter ICAO airport designator
Station Type Date Time Source
KSLG METAR 2020/04/05 18:18 UTC NOAA

KSLG 051818Z AUTO VRB03KT 10SM OVC007 12/11 A3012 RMK AO2 TSNO PNO $


Station Type Date Time Source
KSLG Decoded METAR 2020/04/05 18:18 UTC NOAA

Siloam Springs, Smith Field Airport, AR, United States (KSLG) 36-12N 094-29W
Apr 05, 2020 - 02:18 PM EDT / 2020.04.05 1818 UTC
Wind: Variable at 3 MPH (3 KT):0
Visibility: 10 mile(s):0
Sky conditions: overcast
Temperature: 53 F (12 C)
Dew Point: 51 F (11 C)
Relative Humidity: 93%
Pressure (altimeter): 30.12 in. Hg (1019 hPa)
ob: KSLG 051818Z AUTO VRB03KT 10SM OVC007 12/11 A3012 RMK AO2 TSNO PNO
cycle: 18

Station Type Date Time Source
KSLG TAF UTC NOAA

Error!

Example: see airport list